createdAt,value
2022-09-18T00:00:45.827Z,3.33
2022-09-18T00:03:12.945Z,4.17
2022-09-18T00:05:40.138Z,3.20
2022-09-18T00:08:07.245Z,3.00
2022-09-18T00:10:39.569Z,2.80
2022-09-18T00:13:06.648Z,3.10
2022-09-18T00:15:33.753Z,2.83
2022-09-18T00:18:00.848Z,2.30
2022-09-18T00:20:27.970Z,2.90
2022-09-18T00:22:55.102Z,3.00
2022-09-18T00:25:22.419Z,3.63
2022-09-18T00:27:50.903Z,2.80
2022-09-18T00:30:18.081Z,2.80
2022-09-18T00:32:45.172Z,2.47
2022-09-18T00:35:12.289Z,2.60
2022-09-18T00:37:39.592Z,2.70
2022-09-18T00:40:06.920Z,2.83
2022-09-18T00:42:34.049Z,2.73
2022-09-18T00:45:02.522Z,2.63
2022-09-18T00:47:30.603Z,3.60
2022-09-18T00:50:01.500Z,2.60
2022-09-18T00:52:30.187Z,2.97
2022-09-18T00:55:00.127Z,2.67
2022-09-18T00:57:29.280Z,2.63
2022-09-18T00:59:56.408Z,2.70
2022-09-18T01:02:24.909Z,2.60
2022-09-18T01:04:52.141Z,2.60
2022-09-18T01:07:25.777Z,2.13
2022-09-18T01:09:56.761Z,2.50
2022-09-18T01:12:28.825Z,2.67
2022-09-18T01:14:58.144Z,2.60
2022-09-18T01:17:32.064Z,2.57
2022-09-18T01:20:08.198Z,3.33
2022-09-18T01:22:43.110Z,2.40
2022-09-18T01:25:16.373Z,2.80
2022-09-18T01:27:50.566Z,2.07
2022-09-18T01:30:17.885Z,2.80
2022-09-18T01:32:47.737Z,2.00
2022-09-18T01:35:40.034Z,2.17
2022-09-18T01:38:08.242Z,1.97
2022-09-18T01:40:38.533Z,2.73
2022-09-18T01:43:08.685Z,2.00
2022-09-18T01:45:39.024Z,1.47
2022-09-18T01:48:07.967Z,1.90
2022-09-18T01:50:40.684Z,2.00
2022-09-18T01:53:11.994Z,1.70
2022-09-18T01:55:40.267Z,1.97
2022-09-18T01:58:12.132Z,2.23
2022-09-18T02:00:40.528Z,1.90
2022-09-18T02:03:09.540Z,1.70
2022-09-18T02:05:39.669Z,2.20
2022-09-18T02:08:10.197Z,1.63
2022-09-18T02:10:40.752Z,2.17
2022-09-18T02:13:11.398Z,1.90
2022-09-18T02:15:39.814Z,1.80
2022-09-18T02:18:15.755Z,2.23
2022-09-18T02:20:44.104Z,1.43
2022-09-18T02:23:11.297Z,2.07
2022-09-18T02:25:42.955Z,1.90
2022-09-18T02:28:12.409Z,2.47
2022-09-18T02:30:39.861Z,1.97
2022-09-18T02:33:21.836Z,2.40
2022-09-18T02:35:53.942Z,2.03
2022-09-18T02:38:25.517Z,2.47
2022-09-18T02:40:58.885Z,2.10
2022-09-18T02:43:35.696Z,2.73
2022-09-18T02:46:07.320Z,2.30
2022-09-18T02:48:41.906Z,3.10
2022-09-18T02:51:11.883Z,3.30
2022-09-18T02:53:43.341Z,2.20
2022-09-18T02:56:12.566Z,2.60
2022-09-18T02:58:42.924Z,3.10
2022-09-18T03:01:11.128Z,2.30
2022-09-18T03:03:39.341Z,2.77
2022-09-18T03:06:08.508Z,2.80
2022-09-18T03:08:37.282Z,3.30
2022-09-18T03:11:05.557Z,4.37
2022-09-18T03:13:34.109Z,3.77
2022-09-18T03:16:04.333Z,3.80
2022-09-18T03:18:31.497Z,4.70
2022-09-18T03:20:59.734Z,2.83
2022-09-18T03:23:26.832Z,3.60
2022-09-18T03:26:03.145Z,4.43
2022-09-18T03:28:31.360Z,3.80
2022-09-18T03:30:58.919Z,3.60
2022-09-18T03:33:27.570Z,3.80
2022-09-18T03:35:54.703Z,3.83
2022-09-18T03:38:21.777Z,3.50
2022-09-18T03:40:50.132Z,3.40
2022-09-18T03:43:17.264Z,3.77
2022-09-18T03:45:44.378Z,4.50
2022-09-18T03:48:13.015Z,4.10
2022-09-18T03:50:41.591Z,3.13
2022-09-18T03:53:08.746Z,3.17
2022-09-18T03:55:49.200Z,3.00
2022-09-18T03:58:34.893Z,2.90
2022-09-18T04:01:12.846Z,3.00
2022-09-18T04:04:02.730Z,2.87
2022-09-18T04:06:49.959Z,2.20
2022-09-18T04:09:35.587Z,3.03
2022-09-18T04:12:02.898Z,2.27
2022-09-18T04:14:30.466Z,2.20
2022-09-18T04:16:58.946Z,2.10
2022-09-18T04:19:26.090Z,2.00
2022-09-18T04:21:54.876Z,2.50
2022-09-18T04:24:22.228Z,2.10
2022-09-18T04:26:49.365Z,2.30
2022-09-18T04:29:18.998Z,2.20
2022-09-18T04:31:46.272Z,2.07
2022-09-18T04:34:18.138Z,2.03
2022-09-18T04:36:45.289Z,2.23
2022-09-18T04:39:13.843Z,2.73
2022-09-18T04:41:41.835Z,3.17
2022-09-18T04:44:08.944Z,3.83
2022-09-18T04:46:36.487Z,3.10
2022-09-18T04:49:04.077Z,3.90
2022-09-18T04:51:31.848Z,3.17
2022-09-18T04:54:00.203Z,3.83
2022-09-18T04:56:28.803Z,3.83
2022-09-18T04:58:57.534Z,4.10
2022-09-18T05:01:24.690Z,4.57
2022-09-18T05:03:51.888Z,4.90
2022-09-18T05:06:26.752Z,6.30
2022-09-18T05:08:53.878Z,6.37
2022-09-18T05:11:24.077Z,6.47
2022-09-18T05:13:52.636Z,6.13
2022-09-18T05:16:19.839Z,7.17
2022-09-18T05:19:00.986Z,7.50
2022-09-18T05:21:28.423Z,7.10
2022-09-18T05:23:55.524Z,7.50
2022-09-18T05:26:22.716Z,7.23
2022-09-18T05:28:50.170Z,6.93
2022-09-18T05:31:19.321Z,7.93
2022-09-18T05:33:47.505Z,7.57
2022-09-18T05:36:14.669Z,7.03
2022-09-18T05:38:41.919Z,7.50
2022-09-18T05:41:09.905Z,7.07
2022-09-18T05:43:37.671Z,7.43
2022-09-18T05:46:09.082Z,6.77
2022-09-18T05:48:44.790Z,6.13
2022-09-18T05:51:11.897Z,6.70
2022-09-18T05:53:39.060Z,5.57
2022-09-18T05:56:17.794Z,6.90
2022-09-18T05:58:45.557Z,5.90
2022-09-18T06:01:12.656Z,6.00
2022-09-18T06:03:59.880Z,4.40
2022-09-18T06:06:29.710Z,4.00
2022-09-18T06:08:56.841Z,4.97
2022-09-18T06:11:25.059Z,4.70
2022-09-18T06:13:52.175Z,4.87
2022-09-18T06:16:19.555Z,4.37
2022-09-18T06:19:01.652Z,5.00
2022-09-18T06:21:28.796Z,4.07
2022-09-18T06:23:57.442Z,4.20
2022-09-18T06:26:32.845Z,4.83
2022-09-18T06:28:59.954Z,4.10
2022-09-18T06:31:30.786Z,3.90
2022-09-18T06:34:10.989Z,4.20
2022-09-18T06:36:39.518Z,3.80
2022-09-18T06:39:18.947Z,3.53
2022-09-18T06:41:49.018Z,3.60
2022-09-18T06:44:32.463Z,3.17
2022-09-18T06:47:05.570Z,2.90
2022-09-18T06:49:41.976Z,4.10
2022-09-18T06:52:09.365Z,3.07
2022-09-18T06:54:37.893Z,2.50
2022-09-18T06:57:06.795Z,2.33
2022-09-18T06:59:33.879Z,2.40
2022-09-18T07:02:01.262Z,3.30
2022-09-18T07:04:50.059Z,2.53
2022-09-18T07:07:18.536Z,2.80
2022-09-18T07:09:47.995Z,3.47
2022-09-18T07:12:23.928Z,2.30
2022-09-18T07:14:53.769Z,2.60
2022-09-18T07:17:26.037Z,2.47
2022-09-18T07:19:55.907Z,3.00
2022-09-18T07:22:30.662Z,3.07
2022-09-18T07:24:57.818Z,3.60
2022-09-18T07:27:24.904Z,2.30
2022-09-18T07:29:52.649Z,2.60
2022-09-18T07:32:19.999Z,2.30
2022-09-18T07:34:47.080Z,3.00
2022-09-18T07:37:21.817Z,2.87
2022-09-18T07:39:57.946Z,2.83
2022-09-18T07:42:43.834Z,3.07
2022-09-18T07:45:11.177Z,2.63
2022-09-18T07:47:38.290Z,3.20
2022-09-18T07:50:08.300Z,2.60
2022-09-18T07:52:36.810Z,2.80
2022-09-18T07:55:04.087Z,4.00
2022-09-18T07:57:34.205Z,2.60
2022-09-18T08:00:34.713Z,2.53
2022-09-18T08:03:02.404Z,2.40
2022-09-18T08:05:54.070Z,2.23
2022-09-18T08:08:22.543Z,2.20
2022-09-18T08:11:09.907Z,1.80
2022-09-18T08:13:44.942Z,2.00
2022-09-18T08:16:30.646Z,1.83
2022-09-18T08:19:27.002Z,2.20
2022-09-18T08:22:02.729Z,2.03
2022-09-18T08:24:32.585Z,2.40
2022-09-18T08:26:59.688Z,2.33
2022-09-18T08:29:26.801Z,2.57
2022-09-18T08:32:00.195Z,1.40
2022-09-18T08:34:27.509Z,2.07
2022-09-18T08:36:55.612Z,2.53
2022-09-18T08:39:46.663Z,2.37
2022-09-18T08:42:40.934Z,2.20
2022-09-18T08:45:18.329Z,2.50
2022-09-18T08:47:50.742Z,2.33
2022-09-18T08:50:21.815Z,2.30
2022-09-18T08:52:50.812Z,1.90
2022-09-18T08:55:40.483Z,2.03
2022-09-18T08:58:35.834Z,1.80
2022-09-18T09:01:07.250Z,2.30
2022-09-18T09:03:45.910Z,2.20
2022-09-18T09:06:19.386Z,2.20
2022-09-18T09:09:02.403Z,2.10
2022-09-18T09:11:39.231Z,2.90
2022-09-18T09:14:17.626Z,3.10
2022-09-18T09:16:49.055Z,2.73
2022-09-18T09:19:27.673Z,3.23
2022-09-18T09:21:58.790Z,3.70
2022-09-18T09:24:30.415Z,3.47
2022-09-18T09:27:21.816Z,3.20
2022-09-18T09:30:13.582Z,3.10
2022-09-18T09:33:03.072Z,3.67
2022-09-18T09:35:59.982Z,3.20
2022-09-18T09:38:45.855Z,3.23
2022-09-18T09:41:16.167Z,2.90
2022-09-18T09:43:47.626Z,3.10
2022-09-18T09:46:21.419Z,3.17
2022-09-18T09:48:51.306Z,2.77
2022-09-18T09:51:22.316Z,2.50
2022-09-18T09:53:50.054Z,2.70
2022-09-18T09:56:23.039Z,3.17
2022-09-18T09:58:55.650Z,2.43
2022-09-18T10:01:26.297Z,3.03
2022-09-18T10:03:58.166Z,2.83
2022-09-18T10:06:32.395Z,2.93
2022-09-18T10:09:03.537Z,2.87
2022-09-18T10:11:31.478Z,2.37
2022-09-18T10:14:02.864Z,2.50
2022-09-18T10:16:33.587Z,1.97
2022-09-18T10:19:01.742Z,2.90
2022-09-18T10:21:31.953Z,2.80
2022-09-18T10:24:01.512Z,1.90
2022-09-18T10:26:32.394Z,2.53
2022-09-18T10:29:01.492Z,2.23
2022-09-18T10:31:46.282Z,2.50
2022-09-18T10:34:31.440Z,2.70
2022-09-18T10:36:58.603Z,3.50
2022-09-18T10:39:31.244Z,2.30
2022-09-18T10:42:02.634Z,2.27
2022-09-18T10:44:31.759Z,2.30
2022-09-18T10:47:05.793Z,2.33
2022-09-18T10:49:35.446Z,1.87
2022-09-18T10:52:26.387Z,1.93
2022-09-18T10:55:09.902Z,2.17
2022-09-18T10:57:42.043Z,2.37
2022-09-18T11:00:24.942Z,2.07
2022-09-18T11:02:58.886Z,1.90
2022-09-18T11:05:32.036Z,2.00
2022-09-18T11:08:01.582Z,2.30
2022-09-18T11:10:30.076Z,2.20
2022-09-18T11:12:59.105Z,1.80
2022-09-18T11:15:36.810Z,1.87
2022-09-18T11:18:06.862Z,2.03
2022-09-18T11:20:41.000Z,1.77
2022-09-18T11:23:15.040Z,1.80
2022-09-18T11:25:42.383Z,1.87
2022-09-18T11:28:23.940Z,1.70
2022-09-18T11:30:57.082Z,1.70
2022-09-18T11:33:28.234Z,1.80
2022-09-18T11:36:00.266Z,1.77
2022-09-18T11:38:29.537Z,2.10
2022-09-18T11:40:58.118Z,1.63
2022-09-18T11:43:35.354Z,2.00
2022-09-18T11:46:07.440Z,2.00
2022-09-18T11:48:37.519Z,1.80
2022-09-18T11:51:05.684Z,1.90
2022-09-18T11:53:34.175Z,2.57
2022-09-18T11:56:04.595Z,2.20
2022-09-18T11:58:35.074Z,3.10
2022-09-18T12:01:10.194Z,2.60
2022-09-18T12:03:41.467Z,2.60
2022-09-18T12:06:11.356Z,2.77
2022-09-18T12:08:42.983Z,2.90
2022-09-18T12:11:17.085Z,3.20
2022-09-18T12:13:49.298Z,3.20
2022-09-18T12:16:19.128Z,3.80
2022-09-18T12:18:56.068Z,3.90
2022-09-18T12:21:27.583Z,1.80
2022-09-18T12:23:55.398Z,1.97
2022-09-18T12:26:27.070Z,2.83
2022-09-18T12:29:04.699Z,3.17
2022-09-18T12:31:37.600Z,2.57
2022-09-18T12:34:10.709Z,2.03
2022-09-18T12:36:45.437Z,1.90
2022-09-18T12:39:20.115Z,1.50
2022-09-18T12:41:59.041Z,2.00
2022-09-18T12:44:36.332Z,1.20
2022-09-18T12:47:10.969Z,1.40
2022-09-18T12:49:45.489Z,1.57
2022-09-18T12:52:19.328Z,1.40
2022-09-18T12:55:01.681Z,1.30
2022-09-18T12:57:40.174Z,1.23
2022-09-18T13:00:09.101Z,1.40
2022-09-18T13:02:40.176Z,1.23
2022-09-18T13:05:12.820Z,2.10
2022-09-18T13:07:41.901Z,0.90
2022-09-18T13:10:12.993Z,1.57
2022-09-18T13:12:42.020Z,1.50
2022-09-18T13:15:13.698Z,1.60
2022-09-18T13:17:44.084Z,2.03
2022-09-18T13:20:16.533Z,2.00
2022-09-18T13:22:44.731Z,2.30
2022-09-18T13:25:18.018Z,2.27
2022-09-18T13:27:45.156Z,3.00
2022-09-18T13:30:15.688Z,2.87
2022-09-18T13:32:42.815Z,4.20
2022-09-18T13:35:21.087Z,3.20
2022-09-18T13:37:48.895Z,3.30
2022-09-18T13:40:32.220Z,4.00
2022-09-18T13:42:59.677Z,3.80
2022-09-18T13:45:27.724Z,3.47
2022-09-18T13:48:03.320Z,3.93
2022-09-18T13:50:32.322Z,3.07
2022-09-18T13:53:00.120Z,3.10
2022-09-18T13:55:37.900Z,2.83
2022-09-18T13:58:23.842Z,2.83
2022-09-18T14:00:50.987Z,2.77
2022-09-18T14:03:34.777Z,3.40
2022-09-18T14:06:31.311Z,2.30
2022-09-18T14:08:59.771Z,2.30
2022-09-18T14:11:27.124Z,2.77
2022-09-18T14:13:55.051Z,2.27
2022-09-18T14:16:27.517Z,2.03
2022-09-18T14:18:58.609Z,2.10
2022-09-18T14:21:27.295Z,2.20
2022-09-18T14:24:09.314Z,1.80
2022-09-18T14:26:54.945Z,1.57
2022-09-18T14:29:26.532Z,1.90
2022-09-18T14:31:54.468Z,1.80
2022-09-18T14:34:22.885Z,1.37
2022-09-18T14:36:50.836Z,2.17
2022-09-18T14:39:24.375Z,1.57
2022-09-18T14:41:52.913Z,2.13
2022-09-18T14:44:20.249Z,1.43
2022-09-18T14:46:58.379Z,1.70
2022-09-18T14:49:26.161Z,2.03
2022-09-18T14:52:04.089Z,1.77
2022-09-18T14:54:31.895Z,2.03
2022-09-18T14:57:00.355Z,1.87
2022-09-18T14:59:27.856Z,2.10
2022-09-18T15:02:12.766Z,1.80
2022-09-18T15:04:41.957Z,1.77
2022-09-18T15:07:15.941Z,1.50
2022-09-18T15:09:43.167Z,1.30
2022-09-18T15:12:14.679Z,1.43
2022-09-18T15:14:46.790Z,1.80
2022-09-18T15:17:18.460Z,1.30
2022-09-18T15:19:56.229Z,2.00
2022-09-18T15:22:23.860Z,1.70
2022-09-18T15:24:51.070Z,1.80
2022-09-18T15:27:18.256Z,1.43
2022-09-18T15:29:46.737Z,1.90
2022-09-18T15:32:17.868Z,1.20
2022-09-18T15:34:47.779Z,1.50
2022-09-18T15:37:18.666Z,1.77
2022-09-18T15:39:46.083Z,1.50
2022-09-18T15:42:20.589Z,1.50
2022-09-18T15:45:11.391Z,1.37
2022-09-18T15:47:38.505Z,1.00
2022-09-18T15:50:20.507Z,1.10
2022-09-18T15:53:01.365Z,1.27
2022-09-18T15:55:30.439Z,0.90
2022-09-18T15:57:59.362Z,1.40
2022-09-18T16:00:27.317Z,1.20
2022-09-18T16:02:55.229Z,1.50
2022-09-18T16:05:22.505Z,1.23
2022-09-18T16:07:52.226Z,1.30
2022-09-18T16:10:34.233Z,1.80
2022-09-18T16:13:02.759Z,1.20
2022-09-18T16:15:29.905Z,1.13
2022-09-18T16:18:01.216Z,1.20
2022-09-18T16:20:33.294Z,1.70
2022-09-18T16:23:13.756Z,1.10
2022-09-18T16:25:40.930Z,1.10
2022-09-18T16:28:17.685Z,1.60
2022-09-18T16:30:44.802Z,1.27
2022-09-18T16:33:16.574Z,1.40
2022-09-18T16:35:43.687Z,1.40
2022-09-18T16:38:10.790Z,1.37
2022-09-18T16:40:37.988Z,1.80
2022-09-18T16:43:05.091Z,1.30
2022-09-18T16:45:33.605Z,1.60
2022-09-18T16:48:00.971Z,1.40
2022-09-18T16:50:28.142Z,1.30
2022-09-18T16:52:58.496Z,1.50
2022-09-18T16:55:27.878Z,1.37
2022-09-18T16:57:55.781Z,1.30
2022-09-18T17:00:22.957Z,1.40
2022-09-18T17:02:51.654Z,1.40
2022-09-18T17:05:19.068Z,1.40
2022-09-18T17:07:46.221Z,2.00
2022-09-18T17:10:13.413Z,1.80
2022-09-18T17:12:40.724Z,2.47
2022-09-18T17:15:08.453Z,2.53
2022-09-18T17:17:35.747Z,2.30
2022-09-18T17:20:04.688Z,2.37
2022-09-18T17:22:31.798Z,2.27
2022-09-18T17:24:58.960Z,2.40
2022-09-18T17:27:26.392Z,2.00
2022-09-18T17:29:53.479Z,2.13
2022-09-18T17:32:20.653Z,3.27
2022-09-18T17:34:47.939Z,2.53
2022-09-18T17:37:16.370Z,3.20
2022-09-18T17:39:43.478Z,3.30
2022-09-18T17:42:10.561Z,3.17
2022-09-18T17:44:37.644Z,4.33
2022-09-18T17:47:04.872Z,4.80
2022-09-18T17:49:32.220Z,3.90
2022-09-18T17:51:59.667Z,2.57
2022-09-18T17:54:28.203Z,3.20
2022-09-18T17:56:55.307Z,3.23
2022-09-18T17:59:22.417Z,2.80
2022-09-18T18:01:49.570Z,3.17
2022-09-18T18:04:16.738Z,2.40
2022-09-18T18:06:43.867Z,3.20
2022-09-18T18:09:10.980Z,3.00
2022-09-18T18:11:39.411Z,3.73
2022-09-18T18:14:06.517Z,3.07
2022-09-18T18:16:34.539Z,2.70
2022-09-18T18:19:04.397Z,2.40
2022-09-18T18:21:32.542Z,2.83
2022-09-18T18:24:00.429Z,2.10
2022-09-18T18:26:27.837Z,2.23
2022-09-18T18:28:56.535Z,1.90
2022-09-18T18:31:24.044Z,2.00
2022-09-18T18:33:51.572Z,1.87
2022-09-18T18:36:19.411Z,1.60
2022-09-18T18:38:49.183Z,1.70
2022-09-18T18:41:17.033Z,1.33
2022-09-18T18:43:44.289Z,1.30
2022-09-18T18:46:14.210Z,2.00
2022-09-18T18:48:41.788Z,1.40
2022-09-18T18:51:09.813Z,1.67
2022-09-18T18:53:36.969Z,1.17
2022-09-18T18:56:04.554Z,1.50
2022-09-18T18:58:31.847Z,1.63
2022-09-18T19:01:04.181Z,1.43
2022-09-18T19:03:35.135Z,1.30
2022-09-18T19:06:04.282Z,2.63
2022-09-18T19:08:31.384Z,1.27
2022-09-18T19:10:58.698Z,1.30
2022-09-18T19:13:25.889Z,1.60
2022-09-18T19:15:53.016Z,1.60
2022-09-18T19:18:20.446Z,1.50
2022-09-18T19:20:49.197Z,1.73
2022-09-18T19:23:16.373Z,1.60
2022-09-18T19:25:43.630Z,1.40
2022-09-18T19:28:10.903Z,1.47
2022-09-18T19:30:38.819Z,1.90
2022-09-18T19:33:06.133Z,1.67
2022-09-18T19:35:35.060Z,2.00
2022-09-18T19:38:03.578Z,1.87
2022-09-18T19:40:32.146Z,1.87
2022-09-18T19:43:00.619Z,1.67
2022-09-18T19:45:29.485Z,1.83
2022-09-18T19:47:56.619Z,2.10
2022-09-18T19:50:25.453Z,1.90
2022-09-18T19:52:52.570Z,1.80
2022-09-18T19:55:21.244Z,2.20
2022-09-18T19:57:48.746Z,2.37
2022-09-18T20:00:16.003Z,2.60
2022-09-18T20:02:43.112Z,2.63
2022-09-18T20:05:10.319Z,3.50
2022-09-18T20:07:37.571Z,2.80
2022-09-18T20:10:04.974Z,2.70
2022-09-18T20:12:35.623Z,2.63
2022-09-18T20:15:03.013Z,2.50
2022-09-18T20:17:30.106Z,2.20
2022-09-18T20:19:57.225Z,2.97
2022-09-18T20:22:24.850Z,2.20
2022-09-18T20:24:51.970Z,2.90
2022-09-18T20:27:19.081Z,2.60
2022-09-18T20:29:47.516Z,2.70
2022-09-18T20:32:14.670Z,2.60
2022-09-18T20:34:45.893Z,3.10
2022-09-18T20:37:14.765Z,2.67
2022-09-18T20:39:41.889Z,2.43
2022-09-18T20:42:08.963Z,3.10
2022-09-18T20:44:36.056Z,2.53
2022-09-18T20:47:04.702Z,3.03
2022-09-18T20:49:31.927Z,3.00
2022-09-18T20:51:59.190Z,3.20
2022-09-18T20:54:26.663Z,2.87
2022-09-18T20:56:53.781Z,2.40
2022-09-18T20:59:20.900Z,2.37
2022-09-18T21:01:48.177Z,3.00
2022-09-18T21:04:17.726Z,2.90
2022-09-18T21:06:45.503Z,3.00
2022-09-18T21:09:12.617Z,2.50
2022-09-18T21:11:41.827Z,2.57
2022-09-18T21:14:10.556Z,2.90
2022-09-18T21:16:38.840Z,2.80
2022-09-18T21:19:06.005Z,3.00
2022-09-18T21:21:34.543Z,2.90
2022-09-18T21:24:01.838Z,2.77
2022-09-18T21:26:29.877Z,2.80
2022-09-18T21:28:58.309Z,2.50
2022-09-18T21:31:25.447Z,2.60
2022-09-18T21:33:53.083Z,2.37
2022-09-18T21:36:20.654Z,2.90
2022-09-18T21:38:49.458Z,2.70
2022-09-18T21:41:17.219Z,2.50
2022-09-18T21:43:44.589Z,2.47
2022-09-18T21:46:12.853Z,2.73
2022-09-18T21:48:40.852Z,2.50
2022-09-18T21:51:09.312Z,2.70
2022-09-18T21:53:36.933Z,3.17
2022-09-18T21:56:06.823Z,2.83
2022-09-18T21:58:35.978Z,3.10
2022-09-18T22:01:08.553Z,2.87
2022-09-18T22:03:35.796Z,3.23
2022-09-18T22:06:02.873Z,2.80
2022-09-18T22:08:30.524Z,2.60
2022-09-18T22:11:00.539Z,2.60
2022-09-18T22:13:31.289Z,3.03
2022-09-18T22:15:58.410Z,3.60
2022-09-18T22:18:25.618Z,2.80
2022-09-18T22:20:52.699Z,3.07
2022-09-18T22:23:20.076Z,4.20
2022-09-18T22:25:47.143Z,3.60
2022-09-18T22:28:14.247Z,3.40
2022-09-18T22:30:42.670Z,3.70
2022-09-18T22:33:09.783Z,2.87
2022-09-18T22:35:37.090Z,2.60
2022-09-18T22:38:04.203Z,2.73
2022-09-18T22:40:31.309Z,3.03
2022-09-18T22:42:58.431Z,3.00
2022-09-18T22:45:25.540Z,3.20
2022-09-18T22:47:54.004Z,2.80
2022-09-18T22:50:21.097Z,2.70
2022-09-18T22:52:48.220Z,2.80
2022-09-18T22:55:15.310Z,3.20
2022-09-18T22:57:42.393Z,4.17
2022-09-18T23:00:12.636Z,3.00
2022-09-18T23:02:43.069Z,3.30
2022-09-18T23:07:53.741Z,2.93
2022-09-18T23:10:20.803Z,3.20
2022-09-18T23:12:47.867Z,3.17
2022-09-18T23:15:15.117Z,3.40
2022-09-18T23:17:42.198Z,3.63
2022-09-18T23:20:09.675Z,3.10
2022-09-18T23:22:38.109Z,2.87
2022-09-18T23:25:05.605Z,3.80
2022-09-18T23:27:32.701Z,3.50
2022-09-18T23:29:59.777Z,3.07
2022-09-18T23:32:26.925Z,3.20
2022-09-18T23:34:54.018Z,3.50
2022-09-18T23:37:21.135Z,3.23
2022-09-18T23:39:49.582Z,3.03
2022-09-18T23:42:16.652Z,2.90
2022-09-18T23:44:43.759Z,3.50
2022-09-18T23:47:10.847Z,3.13
2022-09-18T23:49:37.923Z,2.60
2022-09-18T23:52:05.144Z,2.60
2022-09-18T23:54:32.498Z,3.07
2022-09-18T23:57:00.958Z,2.60
2022-09-18T23:59:28.415Z,2.93
